createdAt,value
2018-04-29T00:01:58.531Z,17.00
2018-04-29T00:04:28.259Z,17.13
2018-04-29T00:06:57.302Z,16.03
2018-04-29T00:09:25.528Z,15.47
2018-04-29T00:11:54.486Z,15.70
2018-04-29T00:14:22.718Z,15.40
2018-04-29T00:16:50.897Z,17.10
2018-04-29T00:19:19.135Z,14.23
2018-04-29T00:24:48.330Z,15.47
2018-04-29T00:27:16.509Z,15.97
2018-04-29T00:29:44.731Z,15.30
2018-04-29T00:32:13.652Z,14.30
2018-04-29T00:34:41.962Z,15.30
2018-04-29T00:39:57.278Z,13.67
2018-04-29T00:42:26.234Z,13.40
2018-04-29T00:44:54.499Z,13.00
2018-04-29T00:47:22.683Z,14.40
2018-04-29T00:49:50.871Z,15.40
2018-04-29T00:52:19.147Z,12.90
2018-04-29T00:54:47.404Z,13.50
2018-04-29T00:57:15.574Z,13.63
2018-04-29T00:59:43.850Z,13.43
2018-04-29T01:02:12.034Z,13.50
2018-04-29T01:07:43.298Z,13.83
2018-04-29T01:10:12.262Z,13.53
2018-04-29T01:12:40.469Z,13.03
2018-04-29T01:15:08.663Z,12.83
2018-04-29T01:17:37.697Z,16.10
2018-04-29T01:20:05.917Z,37.93
2018-04-29T01:25:35.366Z,23.10
2018-04-29T01:28:03.605Z,25.40
2018-04-29T01:30:32.556Z,30.97
2018-04-29T01:33:00.777Z,25.63
2018-04-29T01:35:29.003Z,28.33
2018-04-29T01:37:57.265Z,21.30
2018-04-29T01:40:25.651Z,20.80
2018-04-29T01:42:53.875Z,24.80
2018-04-29T01:45:22.897Z,17.00
2018-04-29T01:47:51.970Z,16.63
2018-04-29T01:50:20.146Z,15.20
2018-04-29T01:52:49.166Z,16.97
2018-04-29T01:55:17.364Z,14.60
2018-04-29T01:57:46.268Z,15.10
2018-04-29T02:00:14.472Z,15.73
2018-04-29T02:02:42.686Z,16.03
2018-04-29T02:05:10.923Z,16.33
2018-04-29T02:07:39.184Z,15.93
2018-04-29T02:10:09.002Z,15.97
2018-04-29T02:12:37.186Z,14.63
2018-04-29T02:15:06.170Z,15.83
2018-04-29T02:17:34.388Z,15.40
2018-04-29T02:20:02.623Z,15.27
2018-04-29T02:22:30.805Z,13.93
2018-04-29T02:24:59.791Z,14.30
2018-04-29T02:27:28.773Z,15.00
2018-04-29T02:29:56.943Z,15.10
2018-04-29T02:35:31.111Z,14.37
2018-04-29T02:38:00.060Z,13.80
2018-04-29T02:40:31.791Z,13.80
2018-04-29T02:43:28.315Z,13.60
2018-04-29T02:48:54.097Z,14.13
2018-04-29T02:51:23.047Z,13.20
2018-04-29T02:53:51.322Z,13.33
2018-04-29T02:56:19.539Z,13.40
2018-04-29T02:58:47.724Z,16.57
2018-04-29T03:01:15.944Z,12.37
2018-04-29T03:03:44.123Z,13.20
2018-04-29T03:06:12.448Z,13.50
2018-04-29T03:08:40.621Z,13.13
2018-04-29T03:11:29.075Z,12.37
2018-04-29T03:13:58.050Z,13.40
2018-04-29T03:16:26.232Z,11.80
2018-04-29T03:18:54.507Z,12.30
2018-04-29T03:21:22.677Z,14.70
2018-04-29T03:23:50.881Z,12.83
2018-04-29T03:26:19.825Z,12.77
2018-04-29T03:28:48.217Z,13.43
2018-04-29T03:31:16.394Z,12.17
2018-04-29T03:33:45.448Z,12.50
2018-04-29T03:36:13.703Z,11.80
2018-04-29T03:38:41.891Z,12.67
2018-04-29T03:41:10.114Z,15.83
2018-04-29T03:43:38.376Z,14.00
2018-04-29T03:46:06.571Z,11.57
2018-04-29T03:48:35.514Z,15.37
2018-04-29T03:51:03.935Z,17.23
2018-04-29T03:53:32.116Z,12.90
2018-04-29T03:56:01.148Z,15.50
2018-04-29T03:58:47.229Z,17.37
2018-04-29T04:01:33.282Z,13.50
2018-04-29T04:04:01.550Z,11.67
2018-04-29T04:06:31.273Z,16.10
2018-04-29T04:08:59.536Z,18.23
2018-04-29T04:11:30.734Z,13.47
2018-04-29T04:13:59.030Z,12.40
2018-04-29T04:16:27.225Z,11.47
2018-04-29T04:18:56.295Z,13.00
2018-04-29T04:21:30.353Z,11.43
2018-04-29T04:23:59.322Z,11.00
2018-04-29T04:26:27.606Z,12.23
2018-04-29T04:28:56.866Z,13.27
2018-04-29T04:31:25.047Z,12.47
2018-04-29T04:33:53.240Z,12.03
2018-04-29T04:36:29.684Z,11.00
2018-04-29T04:38:57.989Z,11.73
2018-04-29T04:41:27.739Z,11.30
2018-04-29T04:43:56.008Z,11.50
2018-04-29T04:46:24.950Z,12.87
2018-04-29T04:48:53.173Z,11.10
2018-04-29T04:51:22.129Z,11.63
2018-04-29T04:53:50.408Z,11.40
2018-04-29T04:56:19.516Z,14.03
2018-04-29T04:58:48.611Z,12.57
2018-04-29T05:01:17.699Z,10.70
2018-04-29T05:06:47.078Z,12.77
2018-04-29T05:09:15.431Z,11.53
2018-04-29T05:11:43.616Z,12.60
2018-04-29T05:14:12.569Z,14.40
2018-04-29T05:19:41.945Z,12.80
2018-04-29T05:22:11.078Z,16.43
2018-04-29T05:24:40.146Z,15.57
2018-04-29T05:27:11.089Z,13.37
2018-04-29T05:29:39.431Z,15.07
2018-04-29T05:32:30.857Z,14.30
2018-04-29T05:34:59.294Z,16.27
2018-04-29T05:37:28.444Z,18.00
2018-04-29T05:39:56.762Z,17.00
2018-04-29T05:42:25.143Z,13.90
2018-04-29T05:44:54.938Z,17.80
2018-04-29T05:47:30.031Z,14.23
2018-04-29T05:49:58.371Z,15.00
2018-04-29T05:52:27.462Z,17.47
2018-04-29T05:54:56.558Z,18.10
2018-04-29T05:57:25.501Z,18.03
2018-04-29T05:59:54.513Z,15.53
2018-04-29T06:02:22.700Z,11.50
2018-04-29T06:04:52.510Z,12.47
2018-04-29T06:07:20.758Z,14.67
2018-04-29T06:09:48.932Z,10.20
2018-04-29T06:12:30.000Z,10.77
2018-04-29T06:17:58.325Z,18.33
2018-04-29T06:20:27.993Z,16.17
2018-04-29T06:22:56.179Z,14.80
2018-04-29T06:25:24.388Z,15.27
2018-04-29T06:27:52.595Z,11.37
2018-04-29T06:30:21.689Z,21.30
2018-04-29T06:32:50.761Z,10.57
2018-04-29T06:35:19.759Z,11.70
2018-04-29T06:37:48.706Z,11.30
2018-04-29T06:40:30.342Z,19.77
2018-04-29T06:43:29.321Z,18.47
2018-04-29T06:45:57.499Z,12.00
2018-04-29T06:48:25.674Z,20.13
2018-04-29T06:50:53.936Z,16.67
2018-04-29T06:53:23.763Z,21.33
2018-04-29T06:58:52.235Z,13.63
2018-04-29T07:01:20.429Z,19.67
2018-04-29T07:03:49.386Z,21.47
2018-04-29T07:06:17.657Z,21.10
2018-04-29T07:08:45.872Z,20.83
2018-04-29T07:14:15.194Z,20.23
2018-04-29T07:16:43.467Z,15.53
2018-04-29T07:19:12.557Z,19.57
2018-04-29T07:24:41.570Z,21.63
2018-04-29T07:27:09.846Z,20.57
2018-04-29T07:29:38.058Z,12.33
2018-04-29T07:32:06.306Z,16.20
2018-04-29T07:34:35.351Z,17.30
2018-04-29T07:40:20.062Z,19.00
2018-04-29T07:42:49.843Z,19.07
2018-04-29T07:45:18.063Z,17.40
2018-04-29T07:47:46.323Z,15.47
2018-04-29T07:50:15.256Z,17.93
2018-04-29T07:52:43.519Z,17.50
2018-04-29T07:55:12.583Z,16.60
2018-04-29T07:57:40.888Z,16.80
2018-04-29T08:00:09.839Z,15.20
2018-04-29T08:02:38.038Z,14.97
2018-04-29T08:05:29.863Z,16.90
2018-04-29T08:07:58.135Z,14.73
2018-04-29T08:10:26.309Z,15.37
2018-04-29T08:12:54.494Z,15.37
2018-04-29T08:15:22.810Z,13.53
2018-04-29T08:17:51.000Z,15.57
2018-04-29T08:20:19.251Z,15.77
2018-04-29T08:22:47.454Z,13.17
2018-04-29T08:25:15.634Z,14.83
2018-04-29T08:27:43.899Z,14.33
2018-04-29T08:30:12.109Z,13.50
2018-04-29T08:35:41.471Z,12.93
2018-04-29T08:38:09.662Z,12.40
2018-04-29T08:40:37.841Z,11.77
2018-04-29T08:43:06.051Z,12.30
2018-04-29T08:45:34.264Z,12.40
2018-04-29T08:48:02.446Z,12.50
2018-04-29T08:50:30.789Z,11.90
2018-04-29T08:52:59.745Z,10.63
2018-04-29T08:55:27.930Z,11.77
2018-04-29T09:03:58.215Z,10.67
2018-04-29T09:06:32.775Z,11.37
2018-04-29T09:09:29.275Z,10.07
2018-04-29T09:17:58.459Z,10.90
2018-04-29T09:20:26.648Z,9.63
2018-04-29T09:23:04.490Z,9.67
2018-04-29T09:25:32.706Z,10.87
2018-04-29T09:28:00.943Z,10.13
2018-04-29T09:30:29.211Z,10.00
2018-04-29T09:32:58.152Z,10.27
2018-04-29T09:35:26.358Z,10.93
2018-04-29T09:37:54.656Z,11.60
2018-04-29T09:40:29.945Z,9.90
2018-04-29T09:43:28.740Z,10.30
2018-04-29T09:45:57.010Z,10.00
2018-04-29T09:48:25.229Z,10.50
2018-04-29T09:50:53.514Z,10.53
2018-04-29T09:53:22.485Z,10.73
2018-04-29T09:55:51.541Z,11.20
2018-04-29T09:58:19.727Z,9.30
2018-04-29T10:00:50.791Z,10.57
2018-04-29T10:05:40.861Z,9.30
2018-04-29T10:08:09.065Z,10.93
2018-04-29T10:10:37.314Z,10.40
2018-04-29T10:13:05.515Z,9.50
2018-04-29T10:15:33.818Z,9.97
2018-04-29T10:18:02.895Z,9.67
2018-04-29T10:20:31.160Z,10.63
2018-04-29T10:22:59.338Z,10.50
2018-04-29T10:25:30.711Z,9.80
2018-04-29T10:27:59.664Z,9.83
2018-04-29T10:30:27.837Z,10.00
2018-04-29T10:32:56.205Z,9.80
2018-04-29T10:35:25.125Z,9.80
2018-04-29T10:37:54.131Z,9.40
2018-04-29T10:40:30.046Z,8.90
2018-04-29T10:42:58.231Z,9.77
2018-04-29T10:45:26.478Z,9.67
2018-04-29T10:47:54.672Z,9.10
2018-04-29T10:50:22.857Z,10.60
2018-04-29T10:52:51.100Z,9.60
2018-04-29T10:55:19.284Z,9.87
2018-04-29T10:57:47.464Z,10.57
2018-04-29T11:00:15.699Z,10.33
2018-04-29T11:02:43.889Z,10.40
2018-04-29T11:05:31.450Z,10.63
2018-04-29T11:07:59.621Z,11.70
2018-04-29T11:10:27.866Z,11.10
2018-04-29T11:12:56.087Z,11.67
2018-04-29T11:15:24.264Z,13.13
2018-04-29T11:17:52.472Z,11.60
2018-04-29T11:20:30.950Z,10.13
2018-04-29T11:22:59.239Z,10.50
2018-04-29T11:25:28.225Z,11.97
2018-04-29T11:27:56.559Z,10.50
2018-04-29T11:30:24.774Z,12.50
2018-04-29T11:32:53.053Z,10.53
2018-04-29T11:35:21.312Z,11.30
2018-04-29T11:37:49.594Z,10.50
2018-04-29T11:40:17.845Z,10.90
2018-04-29T11:42:45.981Z,10.70
2018-04-29T11:45:14.972Z,10.93
2018-04-29T11:47:43.279Z,10.17
2018-04-29T11:50:29.441Z,9.67
2018-04-29T11:52:58.404Z,8.83
2018-04-29T11:55:26.586Z,8.63
2018-04-29T11:57:55.759Z,9.73
2018-04-29T12:00:30.769Z,10.07
2018-04-29T12:02:58.983Z,9.33
2018-04-29T12:05:27.258Z,9.90
2018-04-29T12:07:55.443Z,9.17
2018-04-29T12:10:24.694Z,9.17
2018-04-29T12:12:52.905Z,8.10
2018-04-29T12:15:21.177Z,8.10
2018-04-29T12:17:49.412Z,8.10
2018-04-29T12:20:17.591Z,7.43
2018-04-29T12:22:45.759Z,7.50
2018-04-29T12:25:14.178Z,7.10
2018-04-29T12:27:42.454Z,7.90
2018-04-29T12:30:10.635Z,7.17
2018-04-29T12:32:38.906Z,6.40
2018-04-29T12:35:07.177Z,6.80
2018-04-29T12:37:35.356Z,6.90
2018-04-29T12:40:03.627Z,7.53
2018-04-29T12:42:31.819Z,7.90
2018-04-29T12:45:00.793Z,7.53
2018-04-29T12:47:29.198Z,8.30
2018-04-29T12:49:58.146Z,8.07
2018-04-29T12:52:26.321Z,6.93
2018-04-29T12:54:54.537Z,6.50
2018-04-29T12:57:23.511Z,7.27
2018-04-29T12:59:51.787Z,6.60
2018-04-29T13:02:20.005Z,6.60
2018-04-29T13:04:48.417Z,5.70
2018-04-29T13:07:16.589Z,6.80
2018-04-29T13:09:44.813Z,7.50
2018-04-29T13:12:14.082Z,6.87
2018-04-29T13:14:42.264Z,6.20
2018-04-29T13:17:10.545Z,6.67
2018-04-29T13:19:39.495Z,6.30
2018-04-29T13:22:07.685Z,7.70
2018-04-29T13:24:35.911Z,6.57
2018-04-29T13:28:34.158Z,6.60
2018-04-29T13:31:02.363Z,6.33
2018-04-29T13:33:31.301Z,5.90
2018-04-29T13:35:59.505Z,6.67
2018-04-29T13:38:28.591Z,6.77
2018-04-29T13:40:56.922Z,5.70
2018-04-29T13:43:25.113Z,6.90
2018-04-29T13:45:53.513Z,6.80
2018-04-29T13:48:21.693Z,7.33
2018-04-29T13:50:50.502Z,7.03
2018-04-29T13:53:19.478Z,5.30
2018-04-29T13:55:47.687Z,6.00
2018-04-29T13:58:15.863Z,6.60
2018-04-29T14:00:44.079Z,5.80
2018-04-29T14:03:12.274Z,7.00
2018-04-29T14:05:40.462Z,5.83
2018-04-29T14:08:09.465Z,6.53
2018-04-29T14:10:38.600Z,6.73
2018-04-29T14:13:09.044Z,6.70
2018-04-29T14:15:37.301Z,6.47
2018-04-29T14:18:05.470Z,7.07
2018-04-29T14:20:33.696Z,6.80
2018-04-29T14:23:01.918Z,7.13
2018-04-29T14:25:30.096Z,7.57
2018-04-29T14:27:58.311Z,6.83
2018-04-29T14:30:26.498Z,8.50
2018-04-29T14:32:55.429Z,6.50
2018-04-29T14:35:23.650Z,7.23
2018-04-29T14:37:51.883Z,6.33
2018-04-29T14:40:20.205Z,6.17
2018-04-29T14:42:48.411Z,6.40
2018-04-29T14:45:16.651Z,6.13
2018-04-29T14:47:44.934Z,6.37
2018-04-29T14:50:13.985Z,6.70
2018-04-29T14:52:42.162Z,6.37
2018-04-29T14:55:10.348Z,7.07
2018-04-29T14:57:38.558Z,6.27
2018-04-29T15:00:07.499Z,5.47
2018-04-29T15:02:35.702Z,6.00
2018-04-29T15:05:03.926Z,6.20
2018-04-29T15:07:32.093Z,5.93
2018-04-29T15:10:00.272Z,6.03
2018-04-29T15:12:28.487Z,5.60
2018-04-29T15:14:56.880Z,6.83
2018-04-29T15:17:25.060Z,6.20
2018-04-29T15:19:53.274Z,6.07
2018-04-29T15:22:21.451Z,7.23
2018-04-29T15:24:49.620Z,7.10
2018-04-29T15:27:17.864Z,5.70
2018-04-29T15:29:46.830Z,6.00
2018-04-29T15:32:15.111Z,5.90
2018-04-29T15:34:43.398Z,6.57
2018-04-29T15:37:11.670Z,6.90
2018-04-29T15:39:39.947Z,7.23
2018-04-29T15:42:08.330Z,6.00
2018-04-29T15:44:36.510Z,6.50
2018-04-29T15:50:05.505Z,5.93
2018-04-29T15:52:33.690Z,5.77
2018-04-29T15:55:01.857Z,6.73
2018-04-29T15:57:30.146Z,6.13
2018-04-29T16:00:29.704Z,5.90
2018-04-29T16:02:58.022Z,6.33
2018-04-29T16:05:26.294Z,6.50
2018-04-29T16:07:54.563Z,8.03
2018-04-29T16:10:22.842Z,6.47
2018-04-29T16:12:51.027Z,6.83
2018-04-29T16:15:32.750Z,6.47
2018-04-29T16:23:57.470Z,7.90
2018-04-29T16:29:32.590Z,6.23
2018-04-29T16:33:33.535Z,6.57
2018-04-29T16:37:33.771Z,6.80
2018-04-29T16:43:29.707Z,6.73
2018-04-29T16:48:58.633Z,7.40
2018-04-29T16:51:26.921Z,6.60
2018-04-29T16:53:55.884Z,5.87
2018-04-29T16:56:30.793Z,6.60
2018-04-29T16:58:59.006Z,6.70
2018-04-29T17:01:27.193Z,6.57
2018-04-29T17:03:56.282Z,6.60
2018-04-29T17:06:25.232Z,6.57
2018-04-29T17:08:53.410Z,6.47
2018-04-29T17:11:21.626Z,5.83
2018-04-29T17:13:51.138Z,6.30
2018-04-29T17:16:20.105Z,6.67
2018-04-29T17:18:48.314Z,6.80
2018-04-29T17:21:17.381Z,7.40
2018-04-29T17:23:46.330Z,6.60
2018-04-29T17:26:14.753Z,7.33
2018-04-29T17:28:42.995Z,6.10
2018-04-29T17:31:11.198Z,6.73
2018-04-29T17:33:41.010Z,7.07
2018-04-29T17:36:09.181Z,7.27
2018-04-29T17:38:37.348Z,8.43
2018-04-29T17:41:05.634Z,6.63
2018-04-29T17:43:33.955Z,6.77
2018-04-29T17:46:02.226Z,6.90
2018-04-29T17:48:30.527Z,6.90
2018-04-29T17:50:58.717Z,7.27
2018-04-29T17:53:26.909Z,7.97
2018-04-29T17:55:55.173Z,5.73
2018-04-29T17:58:23.445Z,6.17
2018-04-29T18:00:53.154Z,7.37
2018-04-29T18:03:21.384Z,6.60
2018-04-29T18:05:49.722Z,5.27
2018-04-29T18:08:18.004Z,6.50
2018-04-29T18:10:46.370Z,7.70
2018-04-29T18:13:14.664Z,7.67
2018-04-29T18:15:42.921Z,16.27
2018-04-29T18:18:11.210Z,12.77
2018-04-29T18:20:39.486Z,9.57
2018-04-29T18:23:07.662Z,10.10
2018-04-29T18:25:35.941Z,10.80
2018-04-29T18:28:04.131Z,10.30
2018-04-29T18:30:33.094Z,9.37
2018-04-29T18:33:01.363Z,9.73
2018-04-29T18:35:30.996Z,9.10
2018-04-29T18:37:59.953Z,9.23
2018-04-29T18:40:28.179Z,9.00
2018-04-29T18:42:57.129Z,8.90
2018-04-29T18:45:32.085Z,9.50
2018-04-29T18:48:30.730Z,9.87
2018-04-29T18:50:59.138Z,9.67
2018-04-29T18:53:27.226Z,8.00
2018-04-29T18:55:56.243Z,7.67
2018-04-29T18:58:24.509Z,8.70
2018-04-29T19:00:53.481Z,8.00
2018-04-29T19:03:31.079Z,7.43
2018-04-29T19:06:00.041Z,8.57
2018-04-29T19:08:28.218Z,7.60
2018-04-29T19:10:56.432Z,7.50
2018-04-29T19:13:30.658Z,8.10
2018-04-29T19:18:59.210Z,7.07
2018-04-29T19:21:27.409Z,7.83
2018-04-29T19:23:56.434Z,7.00
2018-04-29T19:26:24.668Z,9.23
2018-04-29T19:28:52.891Z,7.87
2018-04-29T19:31:21.195Z,7.07
2018-04-29T19:33:49.377Z,8.03
2018-04-29T19:36:17.615Z,7.83
2018-04-29T19:38:45.834Z,9.77
2018-04-29T19:41:30.601Z,7.40
2018-04-29T19:46:59.822Z,8.00
2018-04-29T19:49:28.000Z,8.00
2018-04-29T19:51:56.992Z,8.40
2018-04-29T19:54:25.335Z,7.43
2018-04-29T19:56:54.164Z,7.90
2018-04-29T19:59:23.207Z,8.50
2018-04-29T20:01:51.427Z,8.70
2018-04-29T20:04:19.699Z,8.30
2018-04-29T20:06:47.923Z,7.57
2018-04-29T20:09:30.283Z,9.17
2018-04-29T20:14:59.597Z,6.83
2018-04-29T20:17:27.911Z,8.60
2018-04-29T20:19:56.144Z,8.37
2018-04-29T20:22:24.427Z,8.60
2018-04-29T20:24:52.702Z,6.50
2018-04-29T20:27:20.879Z,8.20
2018-04-29T20:29:49.172Z,6.63
2018-04-29T20:32:36.081Z,7.33
2018-04-29T20:35:05.137Z,7.60
2018-04-29T20:37:33.445Z,8.27
2018-04-29T20:40:02.399Z,8.37
2018-04-29T20:42:30.622Z,6.10
2018-04-29T20:44:59.647Z,6.87
2018-04-29T20:47:27.983Z,5.57
2018-04-29T20:49:56.974Z,8.47
2018-04-29T20:52:31.911Z,5.57
2018-04-29T20:55:30.502Z,5.80
2018-04-29T20:57:59.457Z,8.53
2018-04-29T21:00:27.688Z,5.07
2018-04-29T21:02:55.871Z,7.90
2018-04-29T21:05:30.763Z,6.07
2018-04-29T21:07:59.923Z,9.50
2018-04-29T21:10:28.082Z,9.20
2018-04-29T21:12:56.335Z,7.53
2018-04-29T21:15:25.305Z,9.07
2018-04-29T21:17:54.288Z,8.93
2018-04-29T21:20:23.473Z,8.90
2018-04-29T21:25:52.039Z,10.90
2018-04-29T21:28:20.263Z,10.40
2018-04-29T21:30:48.450Z,10.50
2018-04-29T21:33:17.532Z,10.13
2018-04-29T21:35:45.718Z,10.90
2018-04-29T21:38:14.856Z,10.40
2018-04-29T21:40:43.133Z,10.97
2018-04-29T21:43:11.323Z,10.17
2018-04-29T21:45:39.524Z,10.47
2018-04-29T21:48:31.045Z,10.57
2018-04-29T21:50:59.322Z,11.33
2018-04-29T21:53:27.524Z,11.13
2018-04-29T21:55:55.697Z,11.00
2018-04-29T21:58:23.914Z,11.47
2018-04-29T22:00:52.110Z,12.13
2018-04-29T22:03:20.384Z,11.13
2018-04-29T22:05:48.654Z,11.10
2018-04-29T22:08:16.939Z,9.90
2018-04-29T22:10:45.143Z,10.33
2018-04-29T22:13:14.086Z,11.40
2018-04-29T22:15:42.293Z,11.23
2018-04-29T22:18:11.238Z,9.30
2018-04-29T22:20:39.481Z,8.10
2018-04-29T22:23:07.681Z,10.50
2018-04-29T22:25:35.901Z,10.63
2018-04-29T22:28:04.981Z,10.63
2018-04-29T22:30:33.272Z,11.57
2018-04-29T22:33:01.446Z,10.60
2018-04-29T22:35:29.698Z,11.50
2018-04-29T22:37:57.919Z,10.40
2018-04-29T22:40:26.153Z,10.30
2018-04-29T22:42:54.387Z,5.97
2018-04-29T22:45:22.647Z,11.77
2018-04-29T22:47:50.898Z,9.73
2018-04-29T22:50:19.966Z,10.80
2018-04-29T22:52:48.154Z,9.50
2018-04-29T22:55:16.432Z,8.30
2018-04-29T23:00:45.523Z,11.40
2018-04-29T23:03:13.751Z,9.67
2018-04-29T23:05:42.751Z,7.53
2018-04-29T23:08:10.994Z,10.37
2018-04-29T23:10:39.947Z,9.37
2018-04-29T23:13:08.122Z,9.93
2018-04-29T23:15:36.322Z,8.93
2018-04-29T23:18:04.531Z,9.50
2018-04-29T23:20:33.506Z,8.87
2018-04-29T23:23:02.489Z,8.20
2018-04-29T23:25:30.771Z,7.80
2018-04-29T23:27:58.996Z,8.27
2018-04-29T23:30:27.301Z,8.70
2018-04-29T23:32:55.592Z,8.77
2018-04-29T23:35:23.897Z,8.53
2018-04-29T23:37:52.129Z,8.97
2018-04-29T23:40:33.206Z,8.67
2018-04-29T23:43:01.495Z,7.60
2018-04-29T23:45:29.767Z,8.87
2018-04-29T23:47:58.033Z,9.80
2018-04-29T23:50:26.314Z,8.73
2018-04-29T23:52:54.656Z,10.33
2018-04-29T23:55:30.926Z,10.27
2018-04-29T23:58:29.832Z,9.87
